sensor_id;sensor_type;location;lat;lon;timestamp;temperature;humidity
3478;DHT22;37937;61.490;23.506;2022-10-31T00:00:06;0.10;99.90
3478;DHT22;37937;61.490;23.506;2022-10-31T00:02:32;0.10;99.90
3478;DHT22;37937;61.490;23.506;2022-10-31T00:04:57;0.10;99.90
3478;DHT22;37937;61.490;23.506;2022-10-31T00:07:23;0.10;99.90
3478;DHT22;37937;61.490;23.506;2022-10-31T00:09:49;0.00;99.90
3478;DHT22;37937;61.490;23.506;2022-10-31T00:12:15;0.00;99.90
3478;DHT22;37937;61.490;23.506;2022-10-31T00:14:40;0.00;99.90
3478;DHT22;37937;61.490;23.506;2022-10-31T00:17:06;0.00;99.90
3478;DHT22;37937;61.490;23.506;2022-10-31T00:19:31;0.00;99.90
3478;DHT22;37937;61.490;23.506;2022-10-31T00:21:57;-0.10;99.90
3478;DHT22;37937;61.490;23.506;2022-10-31T00:24:23;-0.10;99.90
3478;DHT22;37937;61.490;23.506;2022-10-31T00:26:48;-0.20;99.90
3478;DHT22;37937;61.490;23.506;2022-10-31T00:29:14;-0.20;99.90
3478;DHT22;37937;61.490;23.506;2022-10-31T00:31:40;-0.20;99.90
3478;DHT22;37937;61.490;23.506;2022-10-31T00:34:06;-0.20;99.90
3478;DHT22;37937;61.490;23.506;2022-10-31T00:36:31;-0.20;99.90
3478;DHT22;37937;61.490;23.506;2022-10-31T00:38:57;-0.30;99.90
3478;DHT22;37937;61.490;23.506;2022-10-31T00:41:23;-0.30;99.90
3478;DHT22;37937;61.490;23.506;2022-10-31T00:43:49;-0.30;99.90
3478;DHT22;37937;61.490;23.506;2022-10-31T00:46:15;-0.30;99.90
3478;DHT22;37937;61.490;23.506;2022-10-31T00:48:40;-0.30;99.90
3478;DHT22;37937;61.490;23.506;2022-10-31T00:51:06;-0.30;99.90
3478;DHT22;37937;61.490;23.506;2022-10-31T00:53:32;-0.30;99.90
3478;DHT22;37937;61.490;23.506;2022-10-31T00:55:58;-0.30;99.90
3478;DHT22;37937;61.490;23.506;2022-10-31T00:58:23;-0.30;99.90
3478;DHT22;37937;61.490;23.506;2022-10-31T01:00:49;-0.40;99.90
3478;DHT22;37937;61.490;23.506;2022-10-31T01:03:21;-0.40;99.90
3478;DHT22;37937;61.490;23.506;2022-10-31T01:05:54;-0.40;99.90
3478;DHT22;37937;61.490;23.506;2022-10-31T01:08:20;-0.50;99.90
3478;DHT22;37937;61.490;23.506;2022-10-31T01:10:46;-0.50;99.90
3478;DHT22;37937;61.490;23.506;2022-10-31T01:13:11;-0.50;99.90
3478;DHT22;37937;61.490;23.506;2022-10-31T01:15:37;-0.60;99.90
3478;DHT22;37937;61.490;23.506;2022-10-31T01:18:03;-0.60;99.90
3478;DHT22;37937;61.490;23.506;2022-10-31T01:20:28;-0.60;99.90
3478;DHT22;37937;61.490;23.506;2022-10-31T01:22:54;-0.60;99.90
3478;DHT22;37937;61.490;23.506;2022-10-31T01:25:20;-0.70;99.90
3478;DHT22;37937;61.490;23.506;2022-10-31T01:27:45;-0.70;99.90
3478;DHT22;37937;61.490;23.506;2022-10-31T01:30:11;-0.70;99.90
3478;DHT22;37937;61.490;23.506;2022-10-31T01:32:37;-0.70;99.90
3478;DHT22;37937;61.490;23.506;2022-10-31T01:35:03;-0.80;99.90
3478;DHT22;37937;61.490;23.506;2022-10-31T01:37:30;-0.80;99.90
3478;DHT22;37937;61.490;23.506;2022-10-31T01:39:55;-0.80;99.90
3478;DHT22;37937;61.490;23.506;2022-10-31T01:42:21;-0.80;99.90
3478;DHT22;37937;61.490;23.506;2022-10-31T01:44:55;-0.90;99.90
3478;DHT22;37937;61.490;23.506;2022-10-31T01:47:24;-0.80;99.90
3478;DHT22;37937;61.490;23.506;2022-10-31T01:49:53;-0.80;99.90
3478;DHT22;37937;61.490;23.506;2022-10-31T01:52:24;-0.90;99.90
3478;DHT22;37937;61.490;23.506;2022-10-31T01:54:58;-0.90;99.90
3478;DHT22;37937;61.490;23.506;2022-10-31T01:57:25;-0.90;99.90
3478;DHT22;37937;61.490;23.506;2022-10-31T01:59:51;-0.90;99.90
3478;DHT22;37937;61.490;23.506;2022-10-31T02:02:18;-1.00;99.90
3478;DHT22;37937;61.490;23.506;2022-10-31T02:04:44;-1.10;99.90
3478;DHT22;37937;61.490;23.506;2022-10-31T02:07:15;-1.10;99.90
3478;DHT22;37937;61.490;23.506;2022-10-31T02:09:41;-1.10;99.90
3478;DHT22;37937;61.490;23.506;2022-10-31T02:12:09;-1.00;99.90
3478;DHT22;37937;61.490;23.506;2022-10-31T02:14:35;-1.00;99.90
3478;DHT22;37937;61.490;23.506;2022-10-31T02:17:01;-1.00;99.90
3478;DHT22;37937;61.490;23.506;2022-10-31T02:19:33;-1.00;99.90
3478;DHT22;37937;61.490;23.506;2022-10-31T02:22:10;-1.00;99.90
3478;DHT22;37937;61.490;23.506;2022-10-31T02:24:43;-1.00;99.90
3478;DHT22;37937;61.490;23.506;2022-10-31T02:27:18;-1.00;99.90
3478;DHT22;37937;61.490;23.506;2022-10-31T02:32:51;-1.10;99.90
3478;DHT22;37937;61.490;23.506;2022-10-31T02:37:55;-1.10;99.90
3478;DHT22;37937;61.490;23.506;2022-10-31T02:45:38;-0.90;99.90
3478;DHT22;37937;61.490;23.506;2022-10-31T02:48:09;-0.80;99.90
3478;DHT22;37937;61.490;23.506;2022-10-31T02:50:37;-0.70;99.90
3478;DHT22;37937;61.490;23.506;2022-10-31T02:53:05;-0.70;99.90
3478;DHT22;37937;61.490;23.506;2022-10-31T02:58:10;-0.70;99.90
3478;DHT22;37937;61.490;23.506;2022-10-31T03:01:40;-0.70;99.90
3478;DHT22;37937;61.490;23.506;2022-10-31T03:03:44;-0.70;99.90
3478;DHT22;37937;61.490;23.506;2022-10-31T03:06:17;-0.80;99.90
3478;DHT22;37937;61.490;23.506;2022-10-31T03:11:39;-0.80;99.90
3478;DHT22;37937;61.490;23.506;2022-10-31T03:14:21;-0.80;99.90
3478;DHT22;37937;61.490;23.506;2022-10-31T03:19:17;-0.90;99.90
3478;DHT22;37937;61.490;23.506;2022-10-31T03:21:55;-1.00;99.90
3478;DHT22;37937;61.490;23.506;2022-10-31T03:24:24;-1.00;99.90
3478;DHT22;37937;61.490;23.506;2022-10-31T03:26:51;-0.90;99.90
3478;DHT22;37937;61.490;23.506;2022-10-31T03:29:19;-0.90;99.90
3478;DHT22;37937;61.490;23.506;2022-10-31T03:31:48;-1.00;99.90
3478;DHT22;37937;61.490;23.506;2022-10-31T03:34:15;-1.00;99.90
3478;DHT22;37937;61.490;23.506;2022-10-31T03:36:42;-0.90;99.90
3478;DHT22;37937;61.490;23.506;2022-10-31T03:39:10;-1.00;99.90
3478;DHT22;37937;61.490;23.506;2022-10-31T03:41:38;-1.00;99.90
3478;DHT22;37937;61.490;23.506;2022-10-31T03:44:11;-1.00;99.90
3478;DHT22;37937;61.490;23.506;2022-10-31T03:46:38;-1.10;99.90
3478;DHT22;37937;61.490;23.506;2022-10-31T03:49:03;-1.10;99.90
3478;DHT22;37937;61.490;23.506;2022-10-31T03:51:46;-1.10;99.90
3478;DHT22;37937;61.490;23.506;2022-10-31T03:54:18;-1.20;99.90
3478;DHT22;37937;61.490;23.506;2022-10-31T03:56:47;-1.20;99.90
3478;DHT22;37937;61.490;23.506;2022-10-31T03:59:16;-1.20;99.90
3478;DHT22;37937;61.490;23.506;2022-10-31T04:01:50;-1.20;99.90
3478;DHT22;37937;61.490;23.506;2022-10-31T04:04:17;-1.20;99.90
3478;DHT22;37937;61.490;23.506;2022-10-31T04:06:44;-1.20;99.90
3478;DHT22;37937;61.490;23.506;2022-10-31T04:09:11;-1.20;99.90
3478;DHT22;37937;61.490;23.506;2022-10-31T04:11:39;-1.20;99.90
3478;DHT22;37937;61.490;23.506;2022-10-31T04:14:05;-1.30;99.90
3478;DHT22;37937;61.490;23.506;2022-10-31T04:16:31;-1.20;99.90
3478;DHT22;37937;61.490;23.506;2022-10-31T04:18:57;-1.30;99.90
3478;DHT22;37937;61.490;23.506;2022-10-31T04:21:27;-1.30;99.90
3478;DHT22;37937;61.490;23.506;2022-10-31T04:23:53;-1.30;99.90
3478;DHT22;37937;61.490;23.506;2022-10-31T04:26:19;-1.20;99.90
3478;DHT22;37937;61.490;23.506;2022-10-31T04:28:45;-1.30;99.90
3478;DHT22;37937;61.490;23.506;2022-10-31T04:31:11;-1.40;99.90
3478;DHT22;37937;61.490;23.506;2022-10-31T04:33:37;-1.30;99.90
3478;DHT22;37937;61.490;23.506;2022-10-31T04:36:03;-1.30;99.90
3478;DHT22;37937;61.490;23.506;2022-10-31T04:38:28;-1.30;99.90
3478;DHT22;37937;61.490;23.506;2022-10-31T04:40:54;-1.30;99.90
3478;DHT22;37937;61.490;23.506;2022-10-31T04:43:20;-1.30;99.90
3478;DHT22;37937;61.490;23.506;2022-10-31T04:45:45;-1.30;99.90
3478;DHT22;37937;61.490;23.506;2022-10-31T04:48:11;-1.30;99.90
3478;DHT22;37937;61.490;23.506;2022-10-31T04:50:37;-1.40;99.90
3478;DHT22;37937;61.490;23.506;2022-10-31T04:53:02;-1.40;99.90
3478;DHT22;37937;61.490;23.506;2022-10-31T04:55:28;-1.40;99.90
3478;DHT22;37937;61.490;23.506;2022-10-31T04:57:54;-1.40;99.90
3478;DHT22;37937;61.490;23.506;2022-10-31T05:00:20;-1.40;99.90
3478;DHT22;37937;61.490;23.506;2022-10-31T05:02:47;-1.40;99.90
3478;DHT22;37937;61.490;23.506;2022-10-31T05:05:13;-1.40;99.90
3478;DHT22;37937;61.490;23.506;2022-10-31T05:07:40;-1.40;99.90
3478;DHT22;37937;61.490;23.506;2022-10-31T05:10:06;-1.50;99.90
3478;DHT22;37937;61.490;23.506;2022-10-31T05:12:32;-1.50;99.90
3478;DHT22;37937;61.490;23.506;2022-10-31T05:14:57;-1.50;99.90
3478;DHT22;37937;61.490;23.506;2022-10-31T05:17:23;-1.50;99.90
3478;DHT22;37937;61.490;23.506;2022-10-31T05:19:49;-1.50;99.90
3478;DHT22;37937;61.490;23.506;2022-10-31T05:22:14;-1.50;99.90
3478;DHT22;37937;61.490;23.506;2022-10-31T05:24:40;-1.40;99.90
3478;DHT22;37937;61.490;23.506;2022-10-31T05:27:06;-1.40;99.90
3478;DHT22;37937;61.490;23.506;2022-10-31T05:29:31;-1.40;99.90
3478;DHT22;37937;61.490;23.506;2022-10-31T05:31:58;-1.50;99.90
3478;DHT22;37937;61.490;23.506;2022-10-31T05:34:24;-1.40;99.90
3478;DHT22;37937;61.490;23.506;2022-10-31T05:36:50;-1.40;99.90
3478;DHT22;37937;61.490;23.506;2022-10-31T05:39:16;-1.30;99.90
3478;DHT22;37937;61.490;23.506;2022-10-31T05:41:41;-1.30;99.90
3478;DHT22;37937;61.490;23.506;2022-10-31T05:44:07;-1.20;99.90
3478;DHT22;37937;61.490;23.506;2022-10-31T05:46:33;-1.20;99.90
3478;DHT22;37937;61.490;23.506;2022-10-31T05:48:58;-1.10;99.90
3478;DHT22;37937;61.490;23.506;2022-10-31T05:51:24;-1.10;99.90
3478;DHT22;37937;61.490;23.506;2022-10-31T05:53:50;-1.10;99.90
3478;DHT22;37937;61.490;23.506;2022-10-31T05:56:15;-1.00;99.90
3478;DHT22;37937;61.490;23.506;2022-10-31T05:58:41;-1.00;99.90
3478;DHT22;37937;61.490;23.506;2022-10-31T06:01:07;-1.00;99.90
3478;DHT22;37937;61.490;23.506;2022-10-31T06:03:32;-0.90;99.90
3478;DHT22;37937;61.490;23.506;2022-10-31T06:05:58;-0.90;99.90
3478;DHT22;37937;61.490;23.506;2022-10-31T06:08:24;-0.90;99.90
3478;DHT22;37937;61.490;23.506;2022-10-31T06:10:50;-0.80;99.90
3478;DHT22;37937;61.490;23.506;2022-10-31T06:13:15;-0.80;99.90
3478;DHT22;37937;61.490;23.506;2022-10-31T06:15:41;-0.80;99.90
3478;DHT22;37937;61.490;23.506;2022-10-31T06:18:07;-0.80;99.90
3478;DHT22;37937;61.490;23.506;2022-10-31T06:20:33;-0.80;99.90
3478;DHT22;37937;61.490;23.506;2022-10-31T06:22:59;-0.70;99.90
3478;DHT22;37937;61.490;23.506;2022-10-31T06:25:25;-0.70;99.90
3478;DHT22;37937;61.490;23.506;2022-10-31T06:27:51;-0.70;99.90
3478;DHT22;37937;61.490;23.506;2022-10-31T06:30:16;-0.60;99.90
3478;DHT22;37937;61.490;23.506;2022-10-31T06:32:42;-0.60;99.90
3478;DHT22;37937;61.490;23.506;2022-10-31T06:35:08;-0.60;99.90
3478;DHT22;37937;61.490;23.506;2022-10-31T06:37:34;-0.60;99.90
3478;DHT22;37937;61.490;23.506;2022-10-31T06:39:59;-0.50;99.90
3478;DHT22;37937;61.490;23.506;2022-10-31T06:42:25;-0.50;99.90
3478;DHT22;37937;61.490;23.506;2022-10-31T06:44:51;-0.50;99.90
3478;DHT22;37937;61.490;23.506;2022-10-31T06:47:16;-0.50;99.90
3478;DHT22;37937;61.490;23.506;2022-10-31T06:49:42;-0.50;99.90
3478;DHT22;37937;61.490;23.506;2022-10-31T06:52:08;-0.50;99.90
3478;DHT22;37937;61.490;23.506;2022-10-31T06:54:33;-0.50;99.90
3478;DHT22;37937;61.490;23.506;2022-10-31T06:56:59;-0.50;99.90
3478;DHT22;37937;61.490;23.506;2022-10-31T06:59:25;-0.50;99.90
3478;DHT22;37937;61.490;23.506;2022-10-31T07:01:50;-0.50;99.90
3478;DHT22;37937;61.490;23.506;2022-10-31T07:04:16;-0.50;99.90
3478;DHT22;37937;61.490;23.506;2022-10-31T07:06:42;-0.40;99.90
3478;DHT22;37937;61.490;23.506;2022-10-31T07:09:07;-0.40;99.90
3478;DHT22;37937;61.490;23.506;2022-10-31T07:11:33;-0.40;99.90
3478;DHT22;37937;61.490;23.506;2022-10-31T07:13:58;-0.40;99.90
3478;DHT22;37937;61.490;23.506;2022-10-31T07:16:24;-0.40;99.90
3478;DHT22;37937;61.490;23.506;2022-10-31T07:18:50;-0.40;99.90
3478;DHT22;37937;61.490;23.506;2022-10-31T07:21:15;-0.30;99.90
3478;DHT22;37937;61.490;23.506;2022-10-31T07:23:41;-0.30;99.90
3478;DHT22;37937;61.490;23.506;2022-10-31T07:26:07;-0.20;99.90
3478;DHT22;37937;61.490;23.506;2022-10-31T07:28:33;-0.20;99.90
3478;DHT22;37937;61.490;23.506;2022-10-31T07:30:58;-0.20;99.90
3478;DHT22;37937;61.490;23.506;2022-10-31T07:33:24;-0.10;99.90
3478;DHT22;37937;61.490;23.506;2022-10-31T07:35:53;-0.10;99.90
3478;DHT22;37937;61.490;23.506;2022-10-31T07:38:19;0.00;99.90
3478;DHT22;37937;61.490;23.506;2022-10-31T07:40:48;0.10;99.90
3478;DHT22;37937;61.490;23.506;2022-10-31T07:43:14;0.10;99.90
3478;DHT22;37937;61.490;23.506;2022-10-31T07:45:40;0.20;99.90
3478;DHT22;37937;61.490;23.506;2022-10-31T07:48:06;0.30;99.90
3478;DHT22;37937;61.490;23.506;2022-10-31T07:50:32;0.30;99.90
3478;DHT22;37937;61.490;23.506;2022-10-31T07:53:02;0.40;99.90
3478;DHT22;37937;61.490;23.506;2022-10-31T07:55:28;0.40;99.90
3478;DHT22;37937;61.490;23.506;2022-10-31T07:58:04;0.50;99.90
3478;DHT22;37937;61.490;23.506;2022-10-31T08:00:30;0.50;99.90
3478;DHT22;37937;61.490;23.506;2022-10-31T08:02:57;0.50;99.90
3478;DHT22;37937;61.490;23.506;2022-10-31T08:05:23;0.60;99.90
3478;DHT22;37937;61.490;23.506;2022-10-31T08:07:48;0.70;99.90
3478;DHT22;37937;61.490;23.506;2022-10-31T08:10:14;0.70;99.90
3478;DHT22;37937;61.490;23.506;2022-10-31T08:12:40;0.80;99.90
3478;DHT22;37937;61.490;23.506;2022-10-31T08:15:06;0.80;99.90
3478;DHT22;37937;61.490;23.506;2022-10-31T08:17:34;0.90;99.90
3478;DHT22;37937;61.490;23.506;2022-10-31T08:20:00;0.90;99.90
3478;DHT22;37937;61.490;23.506;2022-10-31T08:22:26;1.00;99.90
3478;DHT22;37937;61.490;23.506;2022-10-31T08:24:51;1.10;99.90
3478;DHT22;37937;61.490;23.506;2022-10-31T08:27:17;1.20;99.90
3478;DHT22;37937;61.490;23.506;2022-10-31T08:29:43;1.20;99.90
3478;DHT22;37937;61.490;23.506;2022-10-31T08:32:08;1.30;99.90
3478;DHT22;37937;61.490;23.506;2022-10-31T08:34:34;1.30;99.90
3478;DHT22;37937;61.490;23.506;2022-10-31T08:37:00;1.40;99.90
3478;DHT22;37937;61.490;23.506;2022-10-31T08:39:25;1.50;99.90
3478;DHT22;37937;61.490;23.506;2022-10-31T08:41:51;1.60;99.90
3478;DHT22;37937;61.490;23.506;2022-10-31T08:44:17;1.70;99.90
3478;DHT22;37937;61.490;23.506;2022-10-31T08:46:43;1.80;99.90
3478;DHT22;37937;61.490;23.506;2022-10-31T08:49:14;1.80;99.90
3478;DHT22;37937;61.490;23.506;2022-10-31T08:51:40;1.90;99.90
3478;DHT22;37937;61.490;23.506;2022-10-31T08:54:07;2.00;99.90
3478;DHT22;37937;61.490;23.506;2022-10-31T08:56:34;2.20;99.90
3478;DHT22;37937;61.490;23.506;2022-10-31T08:59:00;2.30;99.90
3478;DHT22;37937;61.490;23.506;2022-10-31T09:01:27;2.50;99.90
3478;DHT22;37937;61.490;23.506;2022-10-31T09:03:54;2.90;99.90
3478;DHT22;37937;61.490;23.506;2022-10-31T09:06:21;3.10;99.90
3478;DHT22;37937;61.490;23.506;2022-10-31T09:08:48;3.30;99.90
3478;DHT22;37937;61.490;23.506;2022-10-31T09:11:15;3.50;99.90
3478;DHT22;37937;61.490;23.506;2022-10-31T09:13:41;3.50;99.90
3478;DHT22;37937;61.490;23.506;2022-10-31T09:16:07;3.40;99.90
3478;DHT22;37937;61.490;23.506;2022-10-31T09:18:33;3.80;99.90
3478;DHT22;37937;61.490;23.506;2022-10-31T09:20:59;4.00;99.90
3478;DHT22;37937;61.490;23.506;2022-10-31T09:23:25;4.20;99.90
3478;DHT22;37937;61.490;23.506;2022-10-31T09:25:52;4.30;99.90
3478;DHT22;37937;61.490;23.506;2022-10-31T09:28:19;4.40;99.90
3478;DHT22;37937;61.490;23.506;2022-10-31T09:30:46;4.50;99.90
3478;DHT22;37937;61.490;23.506;2022-10-31T09:33:12;4.50;99.90
3478;DHT22;37937;61.490;23.506;2022-10-31T09:35:38;4.50;99.90
3478;DHT22;37937;61.490;23.506;2022-10-31T09:38:04;4.50;99.90
3478;DHT22;37937;61.490;23.506;2022-10-31T09:40:38;4.60;99.90
3478;DHT22;37937;61.490;23.506;2022-10-31T09:45:51;4.90;99.90
3478;DHT22;37937;61.490;23.506;2022-10-31T09:48:22;5.00;99.90
3478;DHT22;37937;61.490;23.506;2022-10-31T09:50:53;5.10;99.90
3478;DHT22;37937;61.490;23.506;2022-10-31T09:56:10;5.20;99.90
3478;DHT22;37937;61.490;23.506;2022-10-31T09:58:40;5.30;99.90
3478;DHT22;37937;61.490;23.506;2022-10-31T10:01:09;5.40;99.90
3478;DHT22;37937;61.490;23.506;2022-10-31T10:03:41;5.40;99.90
3478;DHT22;37937;61.490;23.506;2022-10-31T10:06:11;5.40;99.90
3478;DHT22;37937;61.490;23.506;2022-10-31T10:08:38;5.50;99.90
3478;DHT22;37937;61.490;23.506;2022-10-31T10:13:32;5.60;99.90
3478;DHT22;37937;61.490;23.506;2022-10-31T10:18:55;5.70;99.90
3478;DHT22;37937;61.490;23.506;2022-10-31T10:27:25;6.00;99.90
3478;DHT22;37937;61.490;23.506;2022-10-31T10:29:44;6.10;99.90
3478;DHT22;37937;61.490;23.506;2022-10-31T10:32:23;6.10;99.90
3478;DHT22;37937;61.490;23.506;2022-10-31T10:34:54;6.10;99.90
3478;DHT22;37937;61.490;23.506;2022-10-31T10:37:30;6.20;99.90
3478;DHT22;37937;61.490;23.506;2022-10-31T10:40:01;6.20;99.90
3478;DHT22;37937;61.490;23.506;2022-10-31T10:42:28;6.30;99.90
3478;DHT22;37937;61.490;23.506;2022-10-31T10:45:14;6.30;99.90
3478;DHT22;37937;61.490;23.506;2022-10-31T10:48:15;6.30;99.90
3478;DHT22;37937;61.490;23.506;2022-10-31T10:50:50;6.30;99.90
3478;DHT22;37937;61.490;23.506;2022-10-31T10:53:21;6.30;99.90
3478;DHT22;37937;61.490;23.506;2022-10-31T10:56:16;6.30;99.90
3478;DHT22;37937;61.490;23.506;2022-10-31T10:58:43;6.40;99.90
3478;DHT22;37937;61.490;23.506;2022-10-31T11:01:14;6.40;99.90
3478;DHT22;37937;61.490;23.506;2022-10-31T11:03:40;6.50;99.90
3478;DHT22;37937;61.490;23.506;2022-10-31T11:06:15;6.40;99.90
3478;DHT22;37937;61.490;23.506;2022-10-31T11:08:42;6.40;99.90
3478;DHT22;37937;61.490;23.506;2022-10-31T11:11:09;6.40;99.90
3478;DHT22;37937;61.490;23.506;2022-10-31T11:13:36;6.30;99.90
3478;DHT22;37937;61.490;23.506;2022-10-31T11:16:12;6.40;99.90
3478;DHT22;37937;61.490;23.506;2022-10-31T11:18:40;6.40;99.90
3478;DHT22;37937;61.490;23.506;2022-10-31T11:21:17;6.40;99.90
3478;DHT22;37937;61.490;23.506;2022-10-31T11:23:44;6.50;99.90
3478;DHT22;37937;61.490;23.506;2022-10-31T11:26:18;6.50;99.90
3478;DHT22;37937;61.490;23.506;2022-10-31T11:28:44;6.40;99.90
3478;DHT22;37937;61.490;23.506;2022-10-31T11:31:21;6.50;99.90
3478;DHT22;37937;61.490;23.506;2022-10-31T11:33:47;6.40;99.90
3478;DHT22;37937;61.490;23.506;2022-10-31T11:38:45;6.40;99.90
3478;DHT22;37937;61.490;23.506;2022-10-31T11:41:18;6.30;99.90
3478;DHT22;37937;61.490;23.506;2022-10-31T11:43:46;6.20;99.90
3478;DHT22;37937;61.490;23.506;2022-10-31T11:46:21;6.20;99.90
3478;DHT22;37937;61.490;23.506;2022-10-31T11:48:49;6.20;99.90
3478;DHT22;37937;61.490;23.506;2022-10-31T11:51:23;6.20;99.90
3478;DHT22;37937;61.490;23.506;2022-10-31T11:53:53;6.30;99.90
3478;DHT22;37937;61.490;23.506;2022-10-31T11:56:19;6.30;99.90
3478;DHT22;37937;61.490;23.506;2022-10-31T11:58:54;6.20;99.90
3478;DHT22;37937;61.490;23.506;2022-10-31T12:01:25;6.30;99.90
3478;DHT22;37937;61.490;23.506;2022-10-31T12:03:54;6.30;99.90
3478;DHT22;37937;61.490;23.506;2022-10-31T12:06:24;6.30;99.90
3478;DHT22;37937;61.490;23.506;2022-10-31T12:08:52;6.30;99.90
3478;DHT22;37937;61.490;23.506;2022-10-31T12:11:33;6.30;99.90
3478;DHT22;37937;61.490;23.506;2022-10-31T12:16:46;6.30;99.90
3478;DHT22;37937;61.490;23.506;2022-10-31T12:22:05;6.30;99.90
3478;DHT22;37937;61.490;23.506;2022-10-31T12:25:15;6.40;99.90
3478;DHT22;37937;61.490;23.506;2022-10-31T12:27:27;6.40;99.90
3478;DHT22;37937;61.490;23.506;2022-10-31T12:30:02;6.40;99.90
3478;DHT22;37937;61.490;23.506;2022-10-31T12:32:36;6.40;99.90
3478;DHT22;37937;61.490;23.506;2022-10-31T12:42:57;6.40;99.90
3478;DHT22;37937;61.490;23.506;2022-10-31T12:56:14;6.40;99.90
3478;DHT22;37937;61.490;23.506;2022-10-31T13:01:18;6.40;99.90
3478;DHT22;37937;61.490;23.506;2022-10-31T13:03:51;6.40;99.90
3478;DHT22;37937;61.490;23.506;2022-10-31T13:06:27;6.40;99.90
3478;DHT22;37937;61.490;23.506;2022-10-31T13:08:59;6.40;99.90
3478;DHT22;37937;61.490;23.506;2022-10-31T13:11:33;6.40;99.90
3478;DHT22;37937;61.490;23.506;2022-10-31T13:14:11;6.50;99.90
3478;DHT22;37937;61.490;23.506;2022-10-31T13:16:41;6.40;99.90
3478;DHT22;37937;61.490;23.506;2022-10-31T13:25:09;6.30;99.90
3478;DHT22;37937;61.490;23.506;2022-10-31T13:27:24;6.40;99.90
3478;DHT22;37937;61.490;23.506;2022-10-31T13:30:10;6.30;99.90
3478;DHT22;37937;61.490;23.506;2022-10-31T13:32:41;6.30;99.90
3478;DHT22;37937;61.490;23.506;2022-10-31T13:35:21;6.30;99.90
3478;DHT22;37937;61.490;23.506;2022-10-31T13:37:51;6.30;99.90
3478;DHT22;37937;61.490;23.506;2022-10-31T13:40:54;6.40;99.90
3478;DHT22;37937;61.490;23.506;2022-10-31T13:45:48;6.30;99.90
3478;DHT22;37937;61.490;23.506;2022-10-31T13:50:41;6.40;99.90
3478;DHT22;37937;61.490;23.506;2022-10-31T13:53:14;6.40;99.90
3478;DHT22;37937;61.490;23.506;2022-10-31T13:55:45;6.30;99.90
3478;DHT22;37937;61.490;23.506;2022-10-31T13:58:21;6.30;99.90
3478;DHT22;37937;61.490;23.506;2022-10-31T14:03:29;6.30;99.90
3478;DHT22;37937;61.490;23.506;2022-10-31T14:05:55;6.30;99.90
3478;DHT22;37937;61.490;23.506;2022-10-31T14:08:23;6.40;99.90
3478;DHT22;37937;61.490;23.506;2022-10-31T14:10:49;6.40;99.90
3478;DHT22;37937;61.490;23.506;2022-10-31T14:15:42;6.40;99.90
3478;DHT22;37937;61.490;23.506;2022-10-31T14:19:00;6.30;99.90
3478;DHT22;37937;61.490;23.506;2022-10-31T14:21:41;6.30;99.90
3478;DHT22;37937;61.490;23.506;2022-10-31T14:23:59;6.40;99.90
3478;DHT22;37937;61.490;23.506;2022-10-31T14:26:31;6.30;99.90
3478;DHT22;37937;61.490;23.506;2022-10-31T14:29:00;6.30;99.90
3478;DHT22;37937;61.490;23.506;2022-10-31T14:31:29;6.30;99.90
3478;DHT22;37937;61.490;23.506;2022-10-31T14:39:20;6.30;99.90
3478;DHT22;37937;61.490;23.506;2022-10-31T14:44:29;6.30;99.90
3478;DHT22;37937;61.490;23.506;2022-10-31T14:47:16;6.30;99.90
3478;DHT22;37937;61.490;23.506;2022-10-31T14:50:28;6.30;99.90
3478;DHT22;37937;61.490;23.506;2022-10-31T14:52:34;6.30;99.90
3478;DHT22;37937;61.490;23.506;2022-10-31T14:55:01;6.30;99.90
3478;DHT22;37937;61.490;23.506;2022-10-31T14:57:33;6.30;99.90
3478;DHT22;37937;61.490;23.506;2022-10-31T15:00:02;6.30;99.90
3478;DHT22;37937;61.490;23.506;2022-10-31T15:02:42;6.30;99.90
3478;DHT22;37937;61.490;23.506;2022-10-31T15:05:12;6.30;99.90
3478;DHT22;37937;61.490;23.506;2022-10-31T15:07:59;6.40;99.90
3478;DHT22;37937;61.490;23.506;2022-10-31T15:10:36;6.40;99.90
3478;DHT22;37937;61.490;23.506;2022-10-31T15:13:17;6.30;99.90
3478;DHT22;37937;61.490;23.506;2022-10-31T15:15:43;6.40;99.90
3478;DHT22;37937;61.490;23.506;2022-10-31T15:18:15;6.40;99.90
3478;DHT22;37937;61.490;23.506;2022-10-31T15:20:44;6.40;99.90
3478;DHT22;37937;61.490;23.506;2022-10-31T15:23:10;6.40;99.90
3478;DHT22;37937;61.490;23.506;2022-10-31T15:25:37;6.40;99.90
3478;DHT22;37937;61.490;23.506;2022-10-31T15:28:12;6.40;99.90
3478;DHT22;37937;61.490;23.506;2022-10-31T15:30:37;6.40;99.90
3478;DHT22;37937;61.490;23.506;2022-10-31T15:33:14;6.40;99.90
3478;DHT22;37937;61.490;23.506;2022-10-31T15:35:40;6.40;99.90
3478;DHT22;37937;61.490;23.506;2022-10-31T15:38:06;6.40;99.90
3478;DHT22;37937;61.490;23.506;2022-10-31T15:40:33;6.40;99.90
3478;DHT22;37937;61.490;23.506;2022-10-31T15:43:00;6.40;99.90
3478;DHT22;37937;61.490;23.506;2022-10-31T15:45:27;6.40;99.90
3478;DHT22;37937;61.490;23.506;2022-10-31T15:52:54;6.40;99.90
3478;DHT22;37937;61.490;23.506;2022-10-31T15:55:27;6.40;99.90
3478;DHT22;37937;61.490;23.506;2022-10-31T15:58:04;6.50;99.90
3478;DHT22;37937;61.490;23.506;2022-10-31T16:00:37;6.50;99.90
3478;DHT22;37937;61.490;23.506;2022-10-31T16:05:54;6.50;99.90
3478;DHT22;37937;61.490;23.506;2022-10-31T16:10:56;6.60;99.90
3478;DHT22;37937;61.490;23.506;2022-10-31T16:14:05;6.60;99.90
3478;DHT22;37937;61.490;23.506;2022-10-31T16:16:11;6.70;99.90
3478;DHT22;37937;61.490;23.506;2022-10-31T16:18:37;6.70;99.90
3478;DHT22;37937;61.490;23.506;2022-10-31T16:21:04;6.70;99.90
3478;DHT22;37937;61.490;23.506;2022-10-31T16:23:30;6.70;99.90
3478;DHT22;37937;61.490;23.506;2022-10-31T16:25:56;6.70;99.90
3478;DHT22;37937;61.490;23.506;2022-10-31T16:28:23;6.70;99.90
3478;DHT22;37937;61.490;23.506;2022-10-31T16:30:50;6.70;99.90
3478;DHT22;37937;61.490;23.506;2022-10-31T16:35:46;6.80;99.90
3478;DHT22;37937;61.490;23.506;2022-10-31T16:38:11;6.80;99.90
3478;DHT22;37937;61.490;23.506;2022-10-31T16:40:37;6.80;99.90
3478;DHT22;37937;61.490;23.506;2022-10-31T16:43:04;6.80;99.90
3478;DHT22;37937;61.490;23.506;2022-10-31T16:45:30;6.90;99.90
3478;DHT22;37937;61.490;23.506;2022-10-31T16:48:06;6.90;99.90
3478;DHT22;37937;61.490;23.506;2022-10-31T16:50:35;6.80;99.90
3478;DHT22;37937;61.490;23.506;2022-10-31T16:53:02;6.90;99.90
3478;DHT22;37937;61.490;23.506;2022-10-31T16:55:29;6.90;99.90
3478;DHT22;37937;61.490;23.506;2022-10-31T16:57:55;6.90;99.90
3478;DHT22;37937;61.490;23.506;2022-10-31T17:00:22;7.00;99.90
3478;DHT22;37937;61.490;23.506;2022-10-31T17:02:48;7.00;99.90
3478;DHT22;37937;61.490;23.506;2022-10-31T17:05:16;7.00;99.90
3478;DHT22;37937;61.490;23.506;2022-10-31T17:07:42;7.00;99.90
3478;DHT22;37937;61.490;23.506;2022-10-31T17:10:09;7.10;99.90
3478;DHT22;37937;61.490;23.506;2022-10-31T17:12:35;7.10;99.90
3478;DHT22;37937;61.490;23.506;2022-10-31T17:15:01;7.10;99.90
3478;DHT22;37937;61.490;23.506;2022-10-31T17:17:28;7.10;99.90
3478;DHT22;37937;61.490;23.506;2022-10-31T17:19:56;7.20;99.90
3478;DHT22;37937;61.490;23.506;2022-10-31T17:22:22;7.20;99.90
3478;DHT22;37937;61.490;23.506;2022-10-31T17:24:47;7.20;99.90
3478;DHT22;37937;61.490;23.506;2022-10-31T17:27:13;7.20;99.90
3478;DHT22;37937;61.490;23.506;2022-10-31T17:29:39;7.30;99.90